sensor_id;sensor_type;location;lat;lon;timestamp;temperature;humidity
14079;DHT22;7115;50.150;8.568;2023-06-22T00:01:21;25.10;91.60
14079;DHT22;7115;50.150;8.568;2023-06-22T00:03:51;25.10;91.60
14079;DHT22;7115;50.150;8.568;2023-06-22T00:06:19;25.10;91.70
14079;DHT22;7115;50.150;8.568;2023-06-22T00:08:46;25.10;91.80
14079;DHT22;7115;50.150;8.568;2023-06-22T00:11:13;25.00;91.80
14079;DHT22;7115;50.150;8.568;2023-06-22T00:13:40;25.00;91.80
14079;DHT22;7115;50.150;8.568;2023-06-22T00:16:07;25.10;91.90
14079;DHT22;7115;50.150;8.568;2023-06-22T00:18:34;25.00;92.00
14079;DHT22;7115;50.150;8.568;2023-06-22T00:21:00;25.00;92.10
14079;DHT22;7115;50.150;8.568;2023-06-22T00:23:29;25.00;92.20
14079;DHT22;7115;50.150;8.568;2023-06-22T00:26:00;24.90;92.30
14079;DHT22;7115;50.150;8.568;2023-06-22T00:28:27;24.90;92.40
14079;DHT22;7115;50.150;8.568;2023-06-22T00:30:55;24.90;92.50
14079;DHT22;7115;50.150;8.568;2023-06-22T00:33:22;24.80;92.50
14079;DHT22;7115;50.150;8.568;2023-06-22T00:35:49;24.80;92.60
14079;DHT22;7115;50.150;8.568;2023-06-22T00:38:19;24.80;92.70
14079;DHT22;7115;50.150;8.568;2023-06-22T00:40:48;24.80;92.80
14079;DHT22;7115;50.150;8.568;2023-06-22T00:43:15;24.80;92.90
14079;DHT22;7115;50.150;8.568;2023-06-22T00:45:42;24.80;93.00
14079;DHT22;7115;50.150;8.568;2023-06-22T00:48:08;24.80;93.00
14079;DHT22;7115;50.150;8.568;2023-06-22T00:50:35;24.80;93.00
14079;DHT22;7115;50.150;8.568;2023-06-22T00:53:04;24.80;93.10
14079;DHT22;7115;50.150;8.568;2023-06-22T00:55:36;24.80;93.10
14079;DHT22;7115;50.150;8.568;2023-06-22T00:58:07;24.80;93.10
14079;DHT22;7115;50.150;8.568;2023-06-22T01:00:38;24.80;93.20
14079;DHT22;7115;50.150;8.568;2023-06-22T01:03:05;24.80;93.20
14079;DHT22;7115;50.150;8.568;2023-06-22T01:05:37;24.80;93.10
14079;DHT22;7115;50.150;8.568;2023-06-22T01:08:15;24.80;93.20
14079;DHT22;7115;50.150;8.568;2023-06-22T01:10:48;24.90;93.30
14079;DHT22;7115;50.150;8.568;2023-06-22T01:13:26;24.90;93.40
14079;DHT22;7115;50.150;8.568;2023-06-22T01:15:57;24.80;93.70
14079;DHT22;7115;50.150;8.568;2023-06-22T01:18:27;24.80;94.00
14079;DHT22;7115;50.150;8.568;2023-06-22T01:20:56;24.80;94.40
14079;DHT22;7115;50.150;8.568;2023-06-22T01:23:29;24.70;94.80
14079;DHT22;7115;50.150;8.568;2023-06-22T01:26:18;24.70;95.00
14079;DHT22;7115;50.150;8.568;2023-06-22T01:28:48;24.40;95.40
14079;DHT22;7115;50.150;8.568;2023-06-22T01:31:17;24.50;95.60
14079;DHT22;7115;50.150;8.568;2023-06-22T01:33:48;24.40;95.80
14079;DHT22;7115;50.150;8.568;2023-06-22T01:36:17;24.30;96.00
14079;DHT22;7115;50.150;8.568;2023-06-22T01:38:44;24.20;96.00
14079;DHT22;7115;50.150;8.568;2023-06-22T01:41:12;24.10;96.20
14079;DHT22;7115;50.150;8.568;2023-06-22T01:43:40;24.00;96.50
14079;DHT22;7115;50.150;8.568;2023-06-22T01:46:09;24.00;96.80
14079;DHT22;7115;50.150;8.568;2023-06-22T01:48:36;23.90;97.10
14079;DHT22;7115;50.150;8.568;2023-06-22T01:51:04;23.90;97.30
14079;DHT22;7115;50.150;8.568;2023-06-22T01:53:31;23.80;97.50
14079;DHT22;7115;50.150;8.568;2023-06-22T01:55:58;23.80;97.60
14079;DHT22;7115;50.150;8.568;2023-06-22T01:58:27;23.70;97.70
14079;DHT22;7115;50.150;8.568;2023-06-22T02:00:58;23.70;97.90
14079;DHT22;7115;50.150;8.568;2023-06-22T02:03:30;23.70;98.10
14079;DHT22;7115;50.150;8.568;2023-06-22T02:06:06;23.70;98.30
14079;DHT22;7115;50.150;8.568;2023-06-22T02:08:40;23.70;98.50
14079;DHT22;7115;50.150;8.568;2023-06-22T02:11:09;23.70;98.70
14079;DHT22;7115;50.150;8.568;2023-06-22T02:13:37;23.70;98.80
14079;DHT22;7115;50.150;8.568;2023-06-22T02:16:07;23.60;98.90
14079;DHT22;7115;50.150;8.568;2023-06-22T02:18:35;23.60;99.10
14079;DHT22;7115;50.150;8.568;2023-06-22T02:21:03;23.60;99.40
14079;DHT22;7115;50.150;8.568;2023-06-22T02:23:30;23.60;99.60
14079;DHT22;7115;50.150;8.568;2023-06-22T02:25:56;23.60;99.80
14079;DHT22;7115;50.150;8.568;2023-06-22T02:28:23;23.60;99.90
14079;DHT22;7115;50.150;8.568;2023-06-22T02:30:50;23.60;99.90
14079;DHT22;7115;50.150;8.568;2023-06-22T02:33:17;23.60;99.90
14079;DHT22;7115;50.150;8.568;2023-06-22T02:35:45;23.60;99.90
14079;DHT22;7115;50.150;8.568;2023-06-22T02:38:15;23.60;99.90
14079;DHT22;7115;50.150;8.568;2023-06-22T02:40:42;23.50;99.90
14079;DHT22;7115;50.150;8.568;2023-06-22T02:43:09;23.50;99.90
14079;DHT22;7115;50.150;8.568;2023-06-22T02:45:36;23.60;99.90
14079;DHT22;7115;50.150;8.568;2023-06-22T02:48:03;23.60;99.90
14079;DHT22;7115;50.150;8.568;2023-06-22T02:50:30;23.60;99.90
14079;DHT22;7115;50.150;8.568;2023-06-22T02:52:58;23.60;99.90
14079;DHT22;7115;50.150;8.568;2023-06-22T02:55:25;23.60;99.90
14079;DHT22;7115;50.150;8.568;2023-06-22T02:57:52;23.60;99.90
14079;DHT22;7115;50.150;8.568;2023-06-22T03:00:19;23.60;99.90
14079;DHT22;7115;50.150;8.568;2023-06-22T03:02:47;23.50;99.90
14079;DHT22;7115;50.150;8.568;2023-06-22T03:05:15;23.50;99.90
14079;DHT22;7115;50.150;8.568;2023-06-22T03:07:45;23.50;99.90
14079;DHT22;7115;50.150;8.568;2023-06-22T03:10:14;23.50;99.90
14079;DHT22;7115;50.150;8.568;2023-06-22T03:12:42;23.50;99.90
14079;DHT22;7115;50.150;8.568;2023-06-22T03:15:10;23.50;99.90
14079;DHT22;7115;50.150;8.568;2023-06-22T03:17:38;23.50;99.90
14079;DHT22;7115;50.150;8.568;2023-06-22T03:20:07;23.50;99.90
14079;DHT22;7115;50.150;8.568;2023-06-22T03:22:39;23.50;99.90
14079;DHT22;7115;50.150;8.568;2023-06-22T03:25:06;23.50;99.90
14079;DHT22;7115;50.150;8.568;2023-06-22T03:27:42;23.50;99.90
14079;DHT22;7115;50.150;8.568;2023-06-22T03:30:10;23.50;99.90
14079;DHT22;7115;50.150;8.568;2023-06-22T03:32:38;23.50;99.90
14079;DHT22;7115;50.150;8.568;2023-06-22T03:35:06;23.50;99.90
14079;DHT22;7115;50.150;8.568;2023-06-22T03:37:33;23.60;99.90
14079;DHT22;7115;50.150;8.568;2023-06-22T03:40:00;23.50;99.90
14079;DHT22;7115;50.150;8.568;2023-06-22T03:42:27;23.60;99.90
14079;DHT22;7115;50.150;8.568;2023-06-22T03:44:55;23.60;99.90
14079;DHT22;7115;50.150;8.568;2023-06-22T03:47:22;23.50;99.90
14079;DHT22;7115;50.150;8.568;2023-06-22T03:49:49;23.60;99.90
14079;DHT22;7115;50.150;8.568;2023-06-22T03:52:16;23.60;99.90
14079;DHT22;7115;50.150;8.568;2023-06-22T03:54:42;23.60;99.90
14079;DHT22;7115;50.150;8.568;2023-06-22T03:57:09;23.60;99.90
14079;DHT22;7115;50.150;8.568;2023-06-22T03:59:37;23.70;99.90
14079;DHT22;7115;50.150;8.568;2023-06-22T04:02:06;23.60;99.90
14079;DHT22;7115;50.150;8.568;2023-06-22T04:04:32;23.60;99.90
14079;DHT22;7115;50.150;8.568;2023-06-22T04:07:02;23.60;99.90
14079;DHT22;7115;50.150;8.568;2023-06-22T04:09:28;23.60;99.90
14079;DHT22;7115;50.150;8.568;2023-06-22T04:11:55;23.60;99.90
14079;DHT22;7115;50.150;8.568;2023-06-22T04:14:22;23.60;99.90
14079;DHT22;7115;50.150;8.568;2023-06-22T04:16:49;23.50;99.90
14079;DHT22;7115;50.150;8.568;2023-06-22T04:19:17;23.50;99.90
14079;DHT22;7115;50.150;8.568;2023-06-22T04:21:44;23.50;99.90
14079;DHT22;7115;50.150;8.568;2023-06-22T04:24:11;23.40;99.90
14079;DHT22;7115;50.150;8.568;2023-06-22T04:26:38;23.40;99.90
14079;DHT22;7115;50.150;8.568;2023-06-22T04:29:08;23.40;99.90
14079;DHT22;7115;50.150;8.568;2023-06-22T04:31:37;23.20;99.90
14079;DHT22;7115;50.150;8.568;2023-06-22T04:34:05;23.40;99.90
14079;DHT22;7115;50.150;8.568;2023-06-22T04:36:38;23.40;99.90
14079;DHT22;7115;50.150;8.568;2023-06-22T04:39:06;23.30;99.90
14079;DHT22;7115;50.150;8.568;2023-06-22T04:41:33;23.30;99.90
14079;DHT22;7115;50.150;8.568;2023-06-22T04:44:09;23.30;99.90
14079;DHT22;7115;50.150;8.568;2023-06-22T04:46:36;23.30;99.90
14079;DHT22;7115;50.150;8.568;2023-06-22T04:49:05;23.30;99.90
14079;DHT22;7115;50.150;8.568;2023-06-22T04:51:33;23.30;99.90
14079;DHT22;7115;50.150;8.568;2023-06-22T04:54:01;23.40;99.90
14079;DHT22;7115;50.150;8.568;2023-06-22T04:56:28;23.40;99.90
14079;DHT22;7115;50.150;8.568;2023-06-22T04:58:55;23.50;99.90
14079;DHT22;7115;50.150;8.568;2023-06-22T05:01:24;23.50;99.90
14079;DHT22;7115;50.150;8.568;2023-06-22T05:03:52;23.50;99.90
14079;DHT22;7115;50.150;8.568;2023-06-22T05:06:22;23.50;99.90
14079;DHT22;7115;50.150;8.568;2023-06-22T05:08:52;23.50;99.90
14079;DHT22;7115;50.150;8.568;2023-06-22T05:11:21;23.50;99.90
14079;DHT22;7115;50.150;8.568;2023-06-22T05:13:48;23.50;99.90
14079;DHT22;7115;50.150;8.568;2023-06-22T05:16:15;23.50;99.90
14079;DHT22;7115;50.150;8.568;2023-06-22T05:18:42;23.60;99.90
14079;DHT22;7115;50.150;8.568;2023-06-22T05:21:10;23.60;99.90
14079;DHT22;7115;50.150;8.568;2023-06-22T05:23:37;23.60;99.90
14079;DHT22;7115;50.150;8.568;2023-06-22T05:26:03;23.60;99.90
14079;DHT22;7115;50.150;8.568;2023-06-22T05:28:33;23.70;99.90
14079;DHT22;7115;50.150;8.568;2023-06-22T05:30:59;23.70;99.90
14079;DHT22;7115;50.150;8.568;2023-06-22T05:33:26;23.70;99.90
14079;DHT22;7115;50.150;8.568;2023-06-22T05:35:53;23.70;99.90
14079;DHT22;7115;50.150;8.568;2023-06-22T05:38:20;23.80;99.90
14079;DHT22;7115;50.150;8.568;2023-06-22T05:40:47;23.80;99.90
14079;DHT22;7115;50.150;8.568;2023-06-22T05:43:15;23.80;99.90
14079;DHT22;7115;50.150;8.568;2023-06-22T05:45:43;23.90;99.90
14079;DHT22;7115;50.150;8.568;2023-06-22T05:48:10;23.90;99.90
14079;DHT22;7115;50.150;8.568;2023-06-22T05:50:37;24.00;99.90
14079;DHT22;7115;50.150;8.568;2023-06-22T05:53:04;24.00;99.90
14079;DHT22;7115;50.150;8.568;2023-06-22T05:55:31;24.10;99.90
14079;DHT22;7115;50.150;8.568;2023-06-22T05:58:01;24.10;99.90
14079;DHT22;7115;50.150;8.568;2023-06-22T06:00:27;24.20;99.90
14079;DHT22;7115;50.150;8.568;2023-06-22T06:02:56;24.30;99.90
14079;DHT22;7115;50.150;8.568;2023-06-22T06:05:23;24.40;99.90
14079;DHT22;7115;50.150;8.568;2023-06-22T06:07:52;24.50;99.90
14079;DHT22;7115;50.150;8.568;2023-06-22T06:10:19;24.50;99.90
14079;DHT22;7115;50.150;8.568;2023-06-22T06:12:46;24.60;99.90
14079;DHT22;7115;50.150;8.568;2023-06-22T06:15:12;24.60;99.90
14079;DHT22;7115;50.150;8.568;2023-06-22T06:17:46;24.70;99.90
14079;DHT22;7115;50.150;8.568;2023-06-22T06:20:14;24.80;99.90
14079;DHT22;7115;50.150;8.568;2023-06-22T06:22:41;24.90;99.90
14079;DHT22;7115;50.150;8.568;2023-06-22T06:25:10;24.90;99.90
14079;DHT22;7115;50.150;8.568;2023-06-22T06:27:36;25.00;99.90
14079;DHT22;7115;50.150;8.568;2023-06-22T06:30:04;25.00;99.90
14079;DHT22;7115;50.150;8.568;2023-06-22T06:32:31;25.10;99.90
14079;DHT22;7115;50.150;8.568;2023-06-22T06:34:58;25.20;99.90
14079;DHT22;7115;50.150;8.568;2023-06-22T06:37:26;25.20;99.90
14079;DHT22;7115;50.150;8.568;2023-06-22T06:39:54;25.30;99.90
14079;DHT22;7115;50.150;8.568;2023-06-22T06:42:21;25.30;99.90
14079;DHT22;7115;50.150;8.568;2023-06-22T06:44:49;25.40;99.90
14079;DHT22;7115;50.150;8.568;2023-06-22T06:47:16;25.60;99.90
14079;DHT22;7115;50.150;8.568;2023-06-22T06:49:43;25.50;99.90
14079;DHT22;7115;50.150;8.568;2023-06-22T06:52:10;25.70;99.90
14079;DHT22;7115;50.150;8.568;2023-06-22T06:54:38;25.90;99.90
14079;DHT22;7115;50.150;8.568;2023-06-22T06:57:05;25.90;99.90
14079;DHT22;7115;50.150;8.568;2023-06-22T06:59:32;25.90;99.90
14079;DHT22;7115;50.150;8.568;2023-06-22T07:01:59;26.00;99.90
14079;DHT22;7115;50.150;8.568;2023-06-22T07:04:26;26.10;99.90
14079;DHT22;7115;50.150;8.568;2023-06-22T07:06:53;26.20;99.90
14079;DHT22;7115;50.150;8.568;2023-06-22T07:09:20;26.20;99.90
14079;DHT22;7115;50.150;8.568;2023-06-22T07:11:48;26.30;99.90
14079;DHT22;7115;50.150;8.568;2023-06-22T07:14:15;26.40;99.90
14079;DHT22;7115;50.150;8.568;2023-06-22T07:16:42;26.40;99.90
14079;DHT22;7115;50.150;8.568;2023-06-22T07:19:11;26.50;99.90
14079;DHT22;7115;50.150;8.568;2023-06-22T07:21:38;26.50;99.80
14079;DHT22;7115;50.150;8.568;2023-06-22T07:24:07;26.60;99.70
14079;DHT22;7115;50.150;8.568;2023-06-22T07:26:34;26.70;99.70
14079;DHT22;7115;50.150;8.568;2023-06-22T07:29:02;26.70;99.60
14079;DHT22;7115;50.150;8.568;2023-06-22T07:31:29;26.90;99.50
14079;DHT22;7115;50.150;8.568;2023-06-22T07:33:56;26.90;99.30
14079;DHT22;7115;50.150;8.568;2023-06-22T07:36:23;27.00;99.10
14079;DHT22;7115;50.150;8.568;2023-06-22T07:38:50;27.10;99.00
14079;DHT22;7115;50.150;8.568;2023-06-22T07:41:17;27.30;99.00
14079;DHT22;7115;50.150;8.568;2023-06-22T07:43:46;27.30;98.70
14079;DHT22;7115;50.150;8.568;2023-06-22T07:46:15;27.40;98.50
14079;DHT22;7115;50.150;8.568;2023-06-22T07:48:43;27.50;98.40
14079;DHT22;7115;50.150;8.568;2023-06-22T07:51:10;27.60;98.30
14079;DHT22;7115;50.150;8.568;2023-06-22T07:53:40;27.80;98.20
14079;DHT22;7115;50.150;8.568;2023-06-22T07:56:08;27.80;98.00
14079;DHT22;7115;50.150;8.568;2023-06-22T07:58:36;27.90;98.00
14079;DHT22;7115;50.150;8.568;2023-06-22T08:01:04;28.00;97.90
14079;DHT22;7115;50.150;8.568;2023-06-22T08:03:34;28.00;97.70
14079;DHT22;7115;50.150;8.568;2023-06-22T08:06:04;28.10;97.60
14079;DHT22;7115;50.150;8.568;2023-06-22T08:08:32;28.20;97.50
14079;DHT22;7115;50.150;8.568;2023-06-22T08:11:00;28.20;97.20
14079;DHT22;7115;50.150;8.568;2023-06-22T08:13:27;28.30;97.20
14079;DHT22;7115;50.150;8.568;2023-06-22T08:15:55;28.40;97.10
14079;DHT22;7115;50.150;8.568;2023-06-22T08:18:22;28.40;97.00
14079;DHT22;7115;50.150;8.568;2023-06-22T08:20:52;28.50;96.90
14079;DHT22;7115;50.150;8.568;2023-06-22T08:23:19;28.60;96.70
14079;DHT22;7115;50.150;8.568;2023-06-22T08:25:46;28.60;96.50
14079;DHT22;7115;50.150;8.568;2023-06-22T08:28:15;28.70;96.40
14079;DHT22;7115;50.150;8.568;2023-06-22T08:30:43;28.70;96.40
14079;DHT22;7115;50.150;8.568;2023-06-22T08:33:10;28.70;96.30
14079;DHT22;7115;50.150;8.568;2023-06-22T08:35:45;28.70;96.10
14079;DHT22;7115;50.150;8.568;2023-06-22T08:38:14;28.70;96.00
14079;DHT22;7115;50.150;8.568;2023-06-22T08:40:43;28.80;96.00
14079;DHT22;7115;50.150;8.568;2023-06-22T08:43:09;28.80;95.90
14079;DHT22;7115;50.150;8.568;2023-06-22T08:45:37;28.90;95.80
14079;DHT22;7115;50.150;8.568;2023-06-22T08:48:04;28.90;95.80
14079;DHT22;7115;50.150;8.568;2023-06-22T08:50:32;29.00;95.90
14079;DHT22;7115;50.150;8.568;2023-06-22T08:53:00;28.90;95.80
14079;DHT22;7115;50.150;8.568;2023-06-22T08:55:29;29.10;95.80
14079;DHT22;7115;50.150;8.568;2023-06-22T08:57:57;29.20;95.60
14079;DHT22;7115;50.150;8.568;2023-06-22T09:00:24;29.20;95.60
14079;DHT22;7115;50.150;8.568;2023-06-22T09:02:51;29.30;95.50
14079;DHT22;7115;50.150;8.568;2023-06-22T09:05:18;29.30;95.50
14079;DHT22;7115;50.150;8.568;2023-06-22T09:07:45;29.40;95.40
14079;DHT22;7115;50.150;8.568;2023-06-22T09:10:13;29.50;95.40
14079;DHT22;7115;50.150;8.568;2023-06-22T09:12:44;29.50;95.20
14079;DHT22;7115;50.150;8.568;2023-06-22T09:15:11;29.60;95.00
14079;DHT22;7115;50.150;8.568;2023-06-22T09:17:52;29.70;94.90
14079;DHT22;7115;50.150;8.568;2023-06-22T09:20:22;29.70;94.80
14079;DHT22;7115;50.150;8.568;2023-06-22T09:22:49;29.70;94.60
14079;DHT22;7115;50.150;8.568;2023-06-22T09:25:17;29.60;94.50
14079;DHT22;7115;50.150;8.568;2023-06-22T09:27:47;29.70;94.80
14079;DHT22;7115;50.150;8.568;2023-06-22T09:30:14;29.70;94.70
14079;DHT22;7115;50.150;8.568;2023-06-22T09:32:41;29.80;94.50
14079;DHT22;7115;50.150;8.568;2023-06-22T09:35:09;29.80;94.40
14079;DHT22;7115;50.150;8.568;2023-06-22T09:37:43;29.90;94.30
14079;DHT22;7115;50.150;8.568;2023-06-22T09:40:11;30.00;94.30
14079;DHT22;7115;50.150;8.568;2023-06-22T09:42:41;30.10;94.10
14079;DHT22;7115;50.150;8.568;2023-06-22T09:45:10;30.10;94.00
14079;DHT22;7115;50.150;8.568;2023-06-22T09:47:37;30.30;94.10
14079;DHT22;7115;50.150;8.568;2023-06-22T09:50:05;30.40;94.00
14079;DHT22;7115;50.150;8.568;2023-06-22T09:52:32;30.40;93.80
14079;DHT22;7115;50.150;8.568;2023-06-22T09:55:02;30.40;93.70
14079;DHT22;7115;50.150;8.568;2023-06-22T09:57:31;30.50;93.70
14079;DHT22;7115;50.150;8.568;2023-06-22T09:59:58;30.70;93.60
14079;DHT22;7115;50.150;8.568;2023-06-22T10:02:26;30.80;93.40
14079;DHT22;7115;50.150;8.568;2023-06-22T10:04:53;30.90;93.20
14079;DHT22;7115;50.150;8.568;2023-06-22T10:07:21;30.90;93.10
14079;DHT22;7115;50.150;8.568;2023-06-22T10:09:48;30.80;92.90
14079;DHT22;7115;50.150;8.568;2023-06-22T10:12:15;30.70;92.80
14079;DHT22;7115;50.150;8.568;2023-06-22T10:14:41;30.70;92.70
14079;DHT22;7115;50.150;8.568;2023-06-22T10:17:09;30.70;92.80
14079;DHT22;7115;50.150;8.568;2023-06-22T10:19:37;30.70;92.60
14079;DHT22;7115;50.150;8.568;2023-06-22T10:22:05;30.70;92.50
14079;DHT22;7115;50.150;8.568;2023-06-22T10:24:32;30.60;92.40
14079;DHT22;7115;50.150;8.568;2023-06-22T10:26:59;30.60;92.40
14079;DHT22;7115;50.150;8.568;2023-06-22T10:29:26;30.70;92.50
14079;DHT22;7115;50.150;8.568;2023-06-22T10:31:52;30.80;92.40
14079;DHT22;7115;50.150;8.568;2023-06-22T10:34:19;31.00;92.40
14079;DHT22;7115;50.150;8.568;2023-06-22T10:36:47;31.10;92.30
14079;DHT22;7115;50.150;8.568;2023-06-22T10:39:15;31.20;92.10
14079;DHT22;7115;50.150;8.568;2023-06-22T10:41:42;31.30;91.70
14079;DHT22;7115;50.150;8.568;2023-06-22T10:44:09;31.40;91.20
14079;DHT22;7115;50.150;8.568;2023-06-22T10:46:36;31.40;90.70
14079;DHT22;7115;50.150;8.568;2023-06-22T10:49:03;31.50;90.30
14079;DHT22;7115;50.150;8.568;2023-06-22T10:51:29;31.50;89.80
14079;DHT22;7115;50.150;8.568;2023-06-22T10:53:59;31.60;89.20
14079;DHT22;7115;50.150;8.568;2023-06-22T10:56:26;31.70;88.50
14079;DHT22;7115;50.150;8.568;2023-06-22T10:58:53;31.80;87.90
14079;DHT22;7115;50.150;8.568;2023-06-22T11:01:20;31.80;87.30
14079;DHT22;7115;50.150;8.568;2023-06-22T11:04:02;32.00;86.80
14079;DHT22;7115;50.150;8.568;2023-06-22T11:06:29;32.10;86.40
14079;DHT22;7115;50.150;8.568;2023-06-22T11:08:56;32.20;86.00
14079;DHT22;7115;50.150;8.568;2023-06-22T11:11:33;32.20;85.80
14079;DHT22;7115;50.150;8.568;2023-06-22T11:14:00;32.20;85.50
14079;DHT22;7115;50.150;8.568;2023-06-22T11:16:27;32.20;85.30
14079;DHT22;7115;50.150;8.568;2023-06-22T11:18:54;32.30;85.20
14079;DHT22;7115;50.150;8.568;2023-06-22T11:21:21;32.40;84.80
14079;DHT22;7115;50.150;8.568;2023-06-22T11:23:48;32.40;84.70
14079;DHT22;7115;50.150;8.568;2023-06-22T11:26:15;32.60;84.50
14079;DHT22;7115;50.150;8.568;2023-06-22T11:28:43;32.60;83.80
14079;DHT22;7115;50.150;8.568;2023-06-22T11:31:10;32.60;83.10
14079;DHT22;7115;50.150;8.568;2023-06-22T11:33:51;32.50;82.90
14079;DHT22;7115;50.150;8.568;2023-06-22T11:36:19;32.60;82.80
14079;DHT22;7115;50.150;8.568;2023-06-22T11:38:46;32.60;82.60
14079;DHT22;7115;50.150;8.568;2023-06-22T11:41:12;32.70;82.40
14079;DHT22;7115;50.150;8.568;2023-06-22T11:43:39;32.80;82.30
14079;DHT22;7115;50.150;8.568;2023-06-22T11:46:08;32.90;82.10
14079;DHT22;7115;50.150;8.568;2023-06-22T11:48:35;33.00;81.80
14079;DHT22;7115;50.150;8.568;2023-06-22T11:51:03;33.10;82.00
14079;DHT22;7115;50.150;8.568;2023-06-22T11:53:30;33.20;81.40
14079;DHT22;7115;50.150;8.568;2023-06-22T11:55:56;33.30;81.20
14079;DHT22;7115;50.150;8.568;2023-06-22T11:58:23;33.30;81.00
14079;DHT22;7115;50.150;8.568;2023-06-22T12:00:50;33.30;81.00
14079;DHT22;7115;50.150;8.568;2023-06-22T12:03:20;33.30;81.00
14079;DHT22;7115;50.150;8.568;2023-06-22T12:05:51;33.40;80.80
14079;DHT22;7115;50.150;8.568;2023-06-22T12:08:19;33.50;80.60
14079;DHT22;7115;50.150;8.568;2023-06-22T12:10:46;33.60;80.10
14079;DHT22;7115;50.150;8.568;2023-06-22T12:13:12;33.60;79.60
14079;DHT22;7115;50.150;8.568;2023-06-22T12:15:39;33.50;79.70
14079;DHT22;7115;50.150;8.568;2023-06-22T12:18:06;33.60;80.00
14079;DHT22;7115;50.150;8.568;2023-06-22T12:20:35;33.70;80.00
14079;DHT22;7115;50.150;8.568;2023-06-22T12:23:02;33.80;80.10
14079;DHT22;7115;50.150;8.568;2023-06-22T12:25:29;34.00;79.60
14079;DHT22;7115;50.150;8.568;2023-06-22T12:27:56;34.10;79.10
14079;DHT22;7115;50.150;8.568;2023-06-22T12:30:23;34.20;78.90
14079;DHT22;7115;50.150;8.568;2023-06-22T12:32:49;34.30;78.80
14079;DHT22;7115;50.150;8.568;2023-06-22T12:35:18;34.30;78.20
14079;DHT22;7115;50.150;8.568;2023-06-22T12:37:46;34.10;78.10
14079;DHT22;7115;50.150;8.568;2023-06-22T12:40:13;34.00;78.20
14079;DHT22;7115;50.150;8.568;2023-06-22T12:42:40;33.80;77.80
14079;DHT22;7115;50.150;8.568;2023-06-22T12:45:09;33.80;77.60
14079;DHT22;7115;50.150;8.568;2023-06-22T12:47:36;33.80;77.40
14079;DHT22;7115;50.150;8.568;2023-06-22T12:50:03;33.60;77.40
14079;DHT22;7115;50.150;8.568;2023-06-22T12:52:31;33.60;77.60
14079;DHT22;7115;50.150;8.568;2023-06-22T12:55:00;33.60;77.60
14079;DHT22;7115;50.150;8.568;2023-06-22T12:57:27;33.50;77.30
14079;DHT22;7115;50.150;8.568;2023-06-22T12:59:54;33.40;77.10
14079;DHT22;7115;50.150;8.568;2023-06-22T13:02:21;33.30;77.30
14079;DHT22;7115;50.150;8.568;2023-06-22T13:04:48;33.20;77.50
14079;DHT22;7115;50.150;8.568;2023-06-22T13:07:14;33.10;77.70
14079;DHT22;7115;50.150;8.568;2023-06-22T13:09:48;33.10;78.20
14079;DHT22;7115;50.150;8.568;2023-06-22T13:12:20;33.10;78.50
14079;DHT22;7115;50.150;8.568;2023-06-22T13:14:48;33.10;78.90
14079;DHT22;7115;50.150;8.568;2023-06-22T13:17:15;33.00;79.10
14079;DHT22;7115;50.150;8.568;2023-06-22T13:19:42;32.90;79.40
14079;DHT22;7115;50.150;8.568;2023-06-22T13:22:26;32.70;79.80
14079;DHT22;7115;50.150;8.568;2023-06-22T13:24:54;32.60;80.50
14079;DHT22;7115;50.150;8.568;2023-06-22T13:27:23;32.50;81.00
14079;DHT22;7115;50.150;8.568;2023-06-22T13:29:50;32.40;81.30
14079;DHT22;7115;50.150;8.568;2023-06-22T13:32:17;32.40;81.40
14079;DHT22;7115;50.150;8.568;2023-06-22T13:34:44;32.40;81.50
14079;DHT22;7115;50.150;8.568;2023-06-22T13:37:11;32.40;81.40
14079;DHT22;7115;50.150;8.568;2023-06-22T13:39:38;32.30;81.40
14079;DHT22;7115;50.150;8.568;2023-06-22T13:42:06;32.30;81.50
14079;DHT22;7115;50.150;8.568;2023-06-22T13:44:34;32.40;81.40
14079;DHT22;7115;50.150;8.568;2023-06-22T13:47:01;32.40;81.30
14079;DHT22;7115;50.150;8.568;2023-06-22T13:49:28;32.40;81.40
14079;DHT22;7115;50.150;8.568;2023-06-22T13:51:55;32.50;81.60
14079;DHT22;7115;50.150;8.568;2023-06-22T13:54:22;32.50;81.60
14079;DHT22;7115;50.150;8.568;2023-06-22T13:56:51;32.40;81.60
14079;DHT22;7115;50.150;8.568;2023-06-22T13:59:19;32.30;82.50
14079;DHT22;7115;50.150;8.568;2023-06-22T14:01:48;32.30;82.10
14079;DHT22;7115;50.150;8.568;2023-06-22T14:04:14;32.20;82.40
14079;DHT22;7115;50.150;8.568;2023-06-22T14:06:41;32.20;82.80
14079;DHT22;7115;50.150;8.568;2023-06-22T14:09:08;32.20;82.90
14079;DHT22;7115;50.150;8.568;2023-06-22T14:11:35;32.20;83.00
14079;DHT22;7115;50.150;8.568;2023-06-22T14:14:02;32.30;82.90
14079;DHT22;7115;50.150;8.568;2023-06-22T14:16:29;32.20;82.90
14079;DHT22;7115;50.150;8.568;2023-06-22T14:18:57;32.30;83.10
14079;DHT22;7115;50.150;8.568;2023-06-22T14:21:25;32.50;83.40
14079;DHT22;7115;50.150;8.568;2023-06-22T14:23:52;32.50;83.30
14079;DHT22;7115;50.150;8.568;2023-06-22T14:26:19;32.50;83.10
14079;DHT22;7115;50.150;8.568;2023-06-22T14:28:46;32.60;83.00
14079;DHT22;7115;50.150;8.568;2023-06-22T14:31:15;32.60;82.90
14079;DHT22;7115;50.150;8.568;2023-06-22T14:33:48;32.60;82.60
14079;DHT22;7115;50.150;8.568;2023-06-22T14:36:17;32.60;82.30
14079;DHT22;7115;50.150;8.568;2023-06-22T14:38:45;32.60;81.90
14079;DHT22;7115;50.150;8.568;2023-06-22T14:41:13;32.60;81.50
14079;DHT22;7115;50.150;8.568;2023-06-22T14:43:44;32.70;80.10
14079;DHT22;7115;50.150;8.568;2023-06-22T14:46:12;32.60;77.90
14079;DHT22;7115;50.150;8.568;2023-06-22T14:48:39;32.60;76.90
14079;DHT22;7115;50.150;8.568;2023-06-22T14:51:06;32.50;76.10
14079;DHT22;7115;50.150;8.568;2023-06-22T14:53:34;32.50;75.60
14079;DHT22;7115;50.150;8.568;2023-06-22T14:56:01;32.50;75.10
14079;DHT22;7115;50.150;8.568;2023-06-22T14:58:29;32.60;75.00
14079;DHT22;7115;50.150;8.568;2023-06-22T15:00:59;32.50;74.70
14079;DHT22;7115;50.150;8.568;2023-06-22T15:03:26;32.60;74.60
14079;DHT22;7115;50.150;8.568;2023-06-22T15:05:55;32.60;74.40
14079;DHT22;7115;50.150;8.568;2023-06-22T15:08:23;32.60;74.40
14079;DHT22;7115;50.150;8.568;2023-06-22T15:10:51;32.50;74.30
14079;DHT22;7115;50.150;8.568;2023-06-22T15:13:18;32.50;74.30
14079;DHT22;7115;50.150;8.568;2023-06-22T15:15:46;32.40;74.40
14079;DHT22;7115;50.150;8.568;2023-06-22T15:18:13;32.40;74.50
14079;DHT22;7115;50.150;8.568;2023-06-22T15:20:40;32.30;74.90
14079;DHT22;7115;50.150;8.568;2023-06-22T15:23:08;32.20;75.60
14079;DHT22;7115;50.150;8.568;2023-06-22T15:25:36;32.10;76.50
14079;DHT22;7115;50.150;8.568;2023-06-22T15:28:06;32.00;77.30
14079;DHT22;7115;50.150;8.568;2023-06-22T15:30:33;31.80;78.60
14079;DHT22;7115;50.150;8.568;2023-06-22T15:33:01;31.70;80.50
14079;DHT22;7115;50.150;8.568;2023-06-22T15:35:29;31.30;82.20
14079;DHT22;7115;50.150;8.568;2023-06-22T15:37:56;30.50;83.70
14079;DHT22;7115;50.150;8.568;2023-06-22T15:40:23;29.90;88.00
14079;DHT22;7115;50.150;8.568;2023-06-22T15:42:50;29.10;88.50
14079;DHT22;7115;50.150;8.568;2023-06-22T15:45:21;28.50;88.70
14079;DHT22;7115;50.150;8.568;2023-06-22T15:47:47;28.00;88.80
14079;DHT22;7115;50.150;8.568;2023-06-22T15:50:14;27.70;89.20